Terminal Aerodrome Forecast
Issued by NWS Knoxville/Tri Cities, TN

Home | Current Version | Previous Version | Text Only | Print | Product List | Glossary On
Versions: 1 2 3 4 5 6 7 8 9 10 11 12 13 14 15 16 17 18 19 20 21 22 23 24 25 26 27 28 29
000
FTUS44 KMRX 261125
TAFTRI
TAF
KTRI 261125Z 2612/2712 12003KT P6SM SCT060 BKN100
     FM261600 00000KT P6SM VCSH SCT040 BKN100
     FM262000 20008KT P6SM VCTS BKN045CB
     FM270300 VRB02KT P6SM VCSH SCT030 BKN060
     FM270700 00000KT 5SM BR BKN025=

USA.gov is the U.S. government's official web portal to all federal, state and local government web resources and services.